Flugplatz Möckmühl-Korb (UL)

Hier findest Du alle Informationen zum Flugplatz Möckmühl-Korb (UL).

Informationen für Piloten zum Flugplatz Möckmühl-Korb

Hier findest Du alle relevanten Informationen, die Du als Pilot benötigst, um Möckmühl-Korb anzufliegen.

Flugplatz: Möckmühl-Korb ICAO-Code: UL Flugplatz
Frequenz Turm: 129.975 Mhz GAFOR Gebiet: -
Frequenz Ground: 129.975 Mhz Mogas: nein
Platzrunde: N 2112 ft Landegebühr: -
Platzhöhe: Sunrise: 06:06 Uhr UTC
Pisten: 08/26 - 540 m x 30 m, GRAS Sunset: 17:03 Uhr UTC

Mitglieder, die in Möckmühl-Korb fliegen

Flugwetter am Flugplatz Möckmühl-Korb

Die METAR Information stammen aus EDFM (65.59 km entfernt).

METAR Code:
2021/02/18 07:20
EDFM 180720Z VRB03KT CAVOK 02/01 Q1017

Flugschulen am Flugplatz Möckmühl-Korb

Am Flugplatz Möckmühl-Korb gibt es leider keine Flugschule.

Benachbarte Flugplätze und Flugschulen

Es gibt 20 weitere Flugplätze in einem Umkreis von 50 km um den Flugplatz Möckmühl-Korb.

Jetzt anmelden

Passwort vergessen

Umfrage Archiv

Seid Ihr aufgrund von Corona im Jahr 2020 mehr oder weniger geflogen als im Jahr zuvor?

weniger
51.4 %
gleich viel
29.7 %
mehr
18.9 %
Stimmen: 111 | Diskussion
Anzeige: Roland Aircraft
Statistik Alle Mitglieder

Aktuell sind 36 Besucher online.

Anzeige: VFR Sprechfunk Simulator


Anzeige: Pocket FMS